Time;durP1;ratioP1;P1;durP2;ratioP2;P2;SDS_P1;SDS_P2;PMS_P1;PMS_P2;Temp;Humidity;BMP_temperature;BMP_pressure;BME280_temperature;BME280_humidity;BME280_pressure;Samples;Min_cycle;Max_cycle;Signal;HPM_P1;HPM_P2
2024/01/06 00:01:52;;;;;;;2.75;1.70;;;9.40;84.60;;;;;;5058374;28;20107;-73
2024/01/06 00:04:18;;;;;;;2.75;1.77;;;9.40;84.40;;;;;;5058640;28;20405;-74
2024/01/06 00:06:44;;;;;;;1.88;1.40;;;9.40;84.30;;;;;;5058115;28;20349;-73
2024/01/06 00:09:09;;;;;;;3.10;1.60;;;9.40;84.20;;;;;;5058559;28;20074;-73
2024/01/06 00:11:35;;;;;;;2.80;1.55;;;9.40;84.10;;;;;;5058198;28;20032;-74
2024/01/06 00:14:02;;;;;;;2.38;1.52;;;9.40;84.00;;;;;;5058485;28;20071;-73
2024/01/06 00:16:28;;;;;;;2.13;1.50;;;9.40;84.10;;;;;;5058117;28;20029;-74
2024/01/06 00:18:54;;;;;;;1.40;1.17;;;9.40;84.30;;;;;;5056925;28;20074;-73
2024/01/06 00:21:20;;;;;;;2.10;1.73;;;9.40;84.30;;;;;;5057760;28;20032;-73
2024/01/06 00:23:46;;;;;;;2.28;1.08;;;9.40;84.40;;;;;;5057681;28;20147;-73
2024/01/06 00:26:11;;;;;;;1.77;1.10;;;9.40;84.40;;;;;;5058257;28;20059;-73
2024/01/06 00:28:39;;;;;;;1.98;1.20;;;9.40;84.30;;;;;;5058218;28;20040;-73
2024/01/06 00:31:05;;;;;;;2.30;1.30;;;9.40;84.20;;;;;;5057916;28;20064;-74
2024/01/06 00:33:31;;;;;;;1.52;1.20;;;9.50;84.30;;;;;;5057478;28;20127;-72
2024/01/06 00:35:57;;;;;;;3.00;1.80;;;9.50;84.20;;;;;;5057541;28;20052;-73
2024/01/06 00:38:23;;;;;;;3.78;1.95;;;9.50;84.20;;;;;;5057397;28;20025;-73
2024/01/06 00:40:50;;;;;;;4.65;1.83;;;9.50;84.10;;;;;;5057948;28;20074;-74
2024/01/06 00:43:16;;;;;;;5.03;2.13;;;9.50;84.00;;;;;;5057582;28;20037;-73
2024/01/06 00:45:42;;;;;;;3.72;1.95;;;9.50;84.00;;;;;;5039743;28;20121;-73
2024/01/06 00:48:08;;;;;;;1.58;1.20;;;9.50;84.00;;;;;;5057296;28;20056;-73
2024/01/06 00:50:33;;;;;;;1.92;1.38;;;9.50;84.00;;;;;;5057780;28;20353;-74
2024/01/06 00:52:59;;;;;;;2.90;1.80;;;9.50;84.00;;;;;;5057241;28;20053;-73
2024/01/06 00:55:25;;;;;;;3.25;1.65;;;9.50;83.80;;;;;;5057155;28;20031;-74
2024/01/06 00:57:51;;;;;;;2.75;1.73;;;9.50;83.80;;;;;;5039704;28;20108;-72
2024/01/06 01:00:17;;;;;;;2.50;1.58;;;9.50;83.80;;;;;;5056994;28;20104;-72
2024/01/06 01:02:44;;;;;;;2.03;1.35;;;9.50;83.80;;;;;;5039627;28;20100;-72
2024/01/06 01:05:10;;;;;;;1.83;1.05;;;9.50;83.80;;;;;;5057135;28;20024;-72
2024/01/06 01:07:36;;;;;;;1.17;0.93;;;9.50;83.80;;;;;;5057183;28;20029;-73
2024/01/06 01:10:02;;;;;;;1.90;1.13;;;9.50;83.70;;;;;;5056905;28;20045;-73
2024/01/06 01:12:28;;;;;;;1.40;1.08;;;9.50;83.70;;;;;;5057145;28;20032;-73
2024/01/06 01:14:54;;;;;;;2.67;1.45;;;9.40;83.60;;;;;;5057994;28;20044;-74
2024/01/06 01:17:20;;;;;;;1.25;1.00;;;9.50;83.60;;;;;;5057197;28;20048;-73
2024/01/06 01:19:46;;;;;;;2.08;1.27;;;9.40;83.60;;;;;;5039014;28;20021;-73
2024/01/06 01:22:12;;;;;;;2.25;1.33;;;9.40;83.60;;;;;;5056611;28;20048;-73
2024/01/06 01:24:39;;;;;;;2.67;1.50;;;9.40;83.60;;;;;;5056876;28;20013;-74
2024/01/06 01:27:05;;;;;;;2.50;1.75;;;9.40;83.60;;;;;;5057075;28;20021;-72
2024/01/06 01:29:31;;;;;;;4.97;2.38;;;9.50;83.60;;;;;;5056466;28;20029;-72
2024/01/06 01:31:57;;;;;;;2.75;1.80;;;9.40;83.40;;;;;;5055740;28;20118;-74
2024/01/06 01:34:23;;;;;;;3.30;2.00;;;9.40;83.40;;;;;;5056402;28;20347;-73
2024/01/06 01:36:49;;;;;;;2.53;1.70;;;9.40;83.10;;;;;;5056611;28;20103;-73
2024/01/06 01:39:15;;;;;;;2.80;1.60;;;9.40;83.00;;;;;;5056503;28;20033;-74
2024/01/06 01:41:41;;;;;;;2.58;1.45;;;9.30;82.80;;;;;;5056755;28;20100;-74
2024/01/06 01:44:07;;;;;;;2.15;1.20;;;9.30;82.80;;;;;;5056813;28;20402;-73
2024/01/06 01:46:33;;;;;;;1.75;1.00;;;9.30;82.60;;;;;;5056224;28;20079;-73
2024/01/06 01:49:01;;;;;;;1.75;0.60;;;9.20;82.40;;;;;;5056426;28;20028;-73
2024/01/06 01:51:29;;;;;;;0.65;0.65;;;9.10;82.40;;;;;;5056617;28;20047;-73
2024/01/06 01:53:59;;;;;;;1.00;0.80;;;9.10;82.60;;;;;;5055927;28;20068;-74
2024/01/06 01:56:26;;;;;;;0.68;0.63;;;9.10;82.70;;;;;;5056043;28;20100;-74
2024/01/06 01:58:53;;;;;;;2.28;0.60;;;9.00;82.80;;;;;;5056429;28;20319;-73
2024/01/06 02:01:19;;;;;;;1.83;1.10;;;9.00;82.80;;;;;;5056460;28;20032;-73
2024/01/06 02:03:45;;;;;;;2.15;1.00;;;9.00;82.80;;;;;;5055804;28;20021;-73
2024/01/06 02:06:12;;;;;;;2.33;0.80;;;9.00;82.70;;;;;;5056116;28;20049;-73
2024/01/06 02:08:38;;;;;;;1.38;0.90;;;9.00;82.70;;;;;;5055751;28;20025;-74
2024/01/06 02:11:05;;;;;;;0.90;0.50;;;9.10;82.60;;;;;;5056034;28;20024;-73
2024/01/06 02:13:37;;;;;;;0.40;0.40;;;9.10;82.50;;;;;;5055668;28;20048;-73
2024/01/06 02:16:05;;;;;;;0.32;0.32;;;9.00;82.30;;;;;;5055687;28;20025;-74
2024/01/06 02:18:32;;;;;;;0.50;0.40;;;9.10;82.40;;;;;;5055480;28;20025;-73
2024/01/06 02:21:00;;;;;;;0.40;0.40;;;9.10;82.30;;;;;;5055850;28;20033;-73
2024/01/06 02:23:27;;;;;;;0.50;0.50;;;9.10;82.40;;;;;;5055481;28;20017;-73
2024/01/06 02:25:54;;;;;;;0.38;0.38;;;9.10;82.10;;;;;;5056057;28;20051;-73
2024/01/06 02:28:20;;;;;;;0.40;0.40;;;9.10;82.30;;;;;;5055792;28;20028;-73
2024/01/06 02:30:46;;;;;;;0.73;0.57;;;9.20;82.10;;;;;;5055381;28;20028;-73
2024/01/06 02:33:12;;;;;;;1.33;0.70;;;9.10;81.80;;;;;;5055369;28;20116;-73
2024/01/06 02:35:39;;;;;;;2.15;0.80;;;9.20;81.80;;;;;;5055634;28;20056;-73
2024/01/06 02:38:06;;;;;;;1.13;0.82;;;9.20;81.80;;;;;;5055525;28;20075;-73
2024/01/06 02:40:32;;;;;;;1.10;1.00;;;9.20;81.70;;;;;;5055364;28;20029;-73
2024/01/06 02:42:59;;;;;;;0.80;0.80;;;9.20;81.60;;;;;;5055093;28;20449;-73
2024/01/06 02:45:25;;;;;;;0.88;0.88;;;9.20;81.70;;;;;;5055297;28;20506;-73
2024/01/06 02:47:51;;;;;;;1.48;0.80;;;9.20;81.50;;;;;;5055219;28;20031;-72
2024/01/06 02:50:17;;;;;;;1.55;0.75;;;9.20;81.40;;;;;;5055729;28;20021;-73
2024/01/06 02:52:47;;;;;;;1.02;0.90;;;9.20;81.40;;;;;;5054889;28;20057;-73
2024/01/06 02:55:12;;;;;;;1.13;0.70;;;9.10;81.30;;;;;;5055645;28;20060;-73
2024/01/06 02:57:38;;;;;;;0.95;0.82;;;9.10;81.30;;;;;;5055099;28;20395;-74
2024/01/06 03:00:05;;;;;;;0.80;0.80;;;9.10;81.40;;;;;;5055272;28;20048;-73
2024/01/06 03:02:31;;;;;;;0.88;0.77;;;9.10;81.50;;;;;;5055299;28;20017;-73
2024/01/06 03:04:57;;;;;;;0.50;0.50;;;9.10;81.60;;;;;;5054997;28;20025;-72
2024/01/06 03:07:23;;;;;;;0.80;0.68;;;9.10;81.50;;;;;;5055515;28;20021;-73
2024/01/06 03:09:49;;;;;;;1.35;0.90;;;9.20;81.40;;;;;;5055560;28;20033;-73
2024/01/06 03:12:15;;;;;;;0.68;0.68;;;9.10;81.30;;;;;;5055439;28;20334;-74
2024/01/06 03:14:41;;;;;;;0.80;0.80;;;9.10;81.40;;;;;;5054956;28;20043;-73
2024/01/06 03:17:10;;;;;;;0.80;0.55;;;9.10;81.50;;;;;;5054936;28;20021;-73
2024/01/06 03:19:36;;;;;;;0.60;0.60;;;9.10;81.60;;;;;;5054793;28;20033;-73
2024/01/06 03:22:02;;;;;;;0.60;0.60;;;9.20;81.60;;;;;;5037271;28;20460;-73
2024/01/06 03:24:28;;;;;;;0.73;0.60;;;9.20;81.70;;;;;;5055366;28;20028;-73
2024/01/06 03:26:54;;;;;;;0.60;0.60;;;9.20;81.80;;;;;;5055089;28;20018;-73
2024/01/06 03:29:20;;;;;;;0.80;0.80;;;9.20;81.90;;;;;;5055057;28;20414;-73
2024/01/06 03:31:46;;;;;;;1.63;1.20;;;9.30;82.10;;;;;;5054461;28;20035;-73
2024/01/06 03:34:12;;;;;;;1.73;1.10;;;9.30;82.30;;;;;;5054666;28;20029;-73
2024/01/06 03:36:39;;;;;;;2.28;1.27;;;9.30;82.60;;;;;;5055162;28;20086;-73
2024/01/06 03:39:06;;;;;;;2.08;1.33;;;9.30;83.00;;;;;;5054914;28;20028;-72
2024/01/06 03:41:32;;;;;;;2.03;1.48;;;9.40;83.40;;;;;;5037099;28;20445;-73
2024/01/06 03:43:58;;;;;;;1.65;1.50;;;9.40;83.80;;;;;;5054740;28;20456;-73
2024/01/06 03:46:25;;;;;;;1.73;1.27;;;9.30;83.50;;;;;;5054916;28;20013;-73
2024/01/06 03:48:50;;;;;;;1.83;1.10;;;9.40;83.60;;;;;;5054896;28;20376;-73
2024/01/06 03:51:19;;;;;;;1.35;1.20;;;9.40;83.30;;;;;;5055137;28;20020;-72
2024/01/06 03:53:45;;;;;;;2.35;1.20;;;9.40;83.20;;;;;;5054613;28;20053;-73
2024/01/06 03:56:13;;;;;;;1.13;1.05;;;9.40;83.20;;;;;;5058306;28;20147;-73
2024/01/06 03:58:39;;;;;;;1.75;1.10;;;9.40;83.00;;;;;;5058709;28;20429;-72
2024/01/06 04:01:05;;;;;;;2.92;1.70;;;9.50;83.10;;;;;;5058722;28;20029;-74
2024/01/06 04:03:31;;;;;;;2.60;1.38;;;9.50;83.10;;;;;;5040644;28;20048;-73
2024/01/06 04:05:57;;;;;;;1.67;1.48;;;9.50;83.20;;;;;;5058382;28;20036;-73
2024/01/06 04:08:23;;;;;;;1.95;1.27;;;9.50;83.20;;;;;;5058065;28;20025;-73
2024/01/06 04:10:49;;;;;;;2.08;1.10;;;9.50;83.20;;;;;;5058315;28;20071;-73
2024/01/06 04:13:15;;;;;;;1.88;1.20;;;9.60;83.10;;;;;;5058402;28;20341;-73
2024/01/06 04:15:41;;;;;;;1.17;0.90;;;9.60;83.20;;;;;;5058464;28;20078;-72
2024/01/06 04:18:08;;;;;;;1.58;0.80;;;9.60;83.10;;;;;;5057624;28;20032;-72
2024/01/06 04:20:35;;;;;;;1.13;0.75;;;9.60;83.20;;;;;;5057710;28;20052;-72
2024/01/06 04:23:00;;;;;;;1.17;0.95;;;9.60;83.10;;;;;;5057726;28;20425;-72
2024/01/06 04:25:26;;;;;;;0.70;0.70;;;9.60;83.00;;;;;;5057625;28;20049;-73
2024/01/06 04:27:52;;;;;;;0.82;0.60;;;9.60;83.10;;;;;;5057411;28;20028;-73
2024/01/06 04:30:20;;;;;;;1.10;0.82;;;9.50;83.00;;;;;;5058200;28;20112;-72
2024/01/06 04:32:48;;;;;;;1.15;0.77;;;9.50;83.00;;;;;;5057783;28;20052;-72
2024/01/06 04:35:14;;;;;;;0.68;0.68;;;9.60;82.90;;;;;;5057833;28;20036;-73
2024/01/06 04:37:40;;;;;;;0.70;0.70;;;9.50;82.70;;;;;;5057770;28;20029;-73
2024/01/06 04:40:07;;;;;;;1.00;0.95;;;9.50;82.70;;;;;;5057952;28;20033;-73
2024/01/06 04:42:33;;;;;;;0.88;0.70;;;9.50;82.80;;;;;;5057545;28;20017;-73
2024/01/06 04:44:59;;;;;;;1.13;0.80;;;9.50;82.90;;;;;;5057672;28;20040;-73
2024/01/06 04:47:26;;;;;;;0.80;0.80;;;9.40;82.90;;;;;;5057613;28;20362;-72
2024/01/06 04:49:52;;;;;;;1.10;1.00;;;9.50;83.00;;;;;;5057217;28;20040;-73
2024/01/06 04:52:18;;;;;;;1.02;0.90;;;9.50;83.00;;;;;;5039434;28;20041;-73
2024/01/06 04:54:44;;;;;;;1.83;0.70;;;9.40;83.00;;;;;;5057725;28;20057;-73
2024/01/06 04:57:10;;;;;;;1.52;1.08;;;9.50;83.10;;;;;;5057420;28;20033;-73
2024/01/06 04:59:36;;;;;;;2.90;1.20;;;9.40;83.10;;;;;;5057066;28;20055;-73
2024/01/06 05:02:02;;;;;;;0.77;0.77;;;9.50;83.10;;;;;;5057054;28;20032;-74
2024/01/06 05:04:30;;;;;;;1.05;0.95;;;9.50;83.10;;;;;;5056981;28;20029;-72
2024/01/06 05:06:56;;;;;;;1.00;0.82;;;9.50;83.00;;;;;;5057063;28;20021;-73
2024/01/06 05:09:22;;;;;;;1.83;0.85;;;9.50;83.00;;;;;;5056955;28;20358;-73
2024/01/06 05:11:48;;;;;;;1.20;0.90;;;9.50;83.00;;;;;;5056840;28;20039;-73
2024/01/06 05:14:14;;;;;;;1.10;0.88;;;9.50;82.90;;;;;;5056862;28;20029;-73
2024/01/06 05:16:40;;;;;;;1.05;0.80;;;9.50;82.80;;;;;;5057326;28;20053;-72
2024/01/06 05:19:06;;;;;;;1.95;0.80;;;9.50;82.80;;;;;;5056675;28;20025;-73
2024/01/06 05:21:32;;;;;;;0.95;0.77;;;9.50;82.90;;;;;;5056638;28;20354;-74
2024/01/06 05:23:59;;;;;;;0.60;0.60;;;9.50;82.90;;;;;;5056657;28;20059;-73
2024/01/06 05:26:24;;;;;;;0.75;0.60;;;9.50;83.00;;;;;;5056882;28;20023;-73
2024/01/06 05:28:51;;;;;;;0.82;0.73;;;9.50;83.10;;;;;;5056579;28;20033;-73
2024/01/06 05:31:17;;;;;;;1.02;0.88;;;9.50;83.10;;;;;;5056513;28;20021;-73
2024/01/06 05:33:43;;;;;;;0.80;0.80;;;9.60;83.00;;;;;;5056928;28;20086;-73
2024/01/06 05:36:09;;;;;;;0.93;0.90;;;9.60;83.00;;;;;;5056631;28;20021;-73
2024/01/06 05:38:36;;;;;;;1.73;1.05;;;9.60;82.90;;;;;;5056286;28;20348;-72
2024/01/06 05:41:02;;;;;;;2.33;1.55;;;9.60;82.90;;;;;;5056527;28;20021;-72
2024/01/06 05:43:27;;;;;;;4.00;2.17;;;9.60;82.90;;;;;;5056225;28;20464;-73
2024/01/06 05:45:53;;;;;;;1.98;1.77;;;9.70;82.90;;;;;;5056495;28;20017;-73
2024/01/06 05:48:20;;;;;;;1.67;1.25;;;9.70;82.70;;;;;;5038551;28;20035;-72
2024/01/06 05:50:46;;;;;;;1.30;1.20;;;9.70;82.50;;;;;;5056699;28;20021;-73
2024/01/06 05:53:14;;;;;;;1.55;1.10;;;9.60;82.00;;;;;;5055620;28;20108;-72
2024/01/06 05:55:40;;;;;;;1.02;1.00;;;9.60;81.80;;;;;;5055987;28;20033;-73
2024/01/06 05:58:05;;;;;;;0.77;0.77;;;9.60;82.00;;;;;;5056542;28;20028;-72
2024/01/06 06:00:31;;;;;;;1.63;0.98;;;9.50;81.90;;;;;;5055918;28;20484;-73
2024/01/06 06:02:58;;;;;;;0.90;0.90;;;9.50;81.80;;;;;;5055856;28;20097;-73
2024/01/06 06:05:24;;;;;;;2.28;1.15;;;9.50;81.70;;;;;;5055890;28;20074;-71
2024/01/06 06:07:49;;;;;;;1.10;1.00;;;9.50;81.60;;;;;;5056062;28;20341;-73
2024/01/06 06:10:18;;;;;;;1.30;1.20;;;9.50;81.60;;;;;;5056027;28;20029;-73
2024/01/06 06:12:44;;;;;;;2.67;1.80;;;9.50;81.50;;;;;;5055897;28;20170;-72
2024/01/06 06:15:10;;;;;;;2.95;1.88;;;9.40;81.40;;;;;;5056305;28;20047;-72
2024/01/06 06:17:36;;;;;;;2.67;1.85;;;9.40;81.50;;;;;;5056449;28;20029;-73
2024/01/06 06:20:03;;;;;;;2.65;2.08;;;9.40;81.20;;;;;;5055774;28;20055;-72
2024/01/06 06:22:32;;;;;;;3.70;2.38;;;9.40;81.40;;;;;;5055737;28;20446;-73
2024/01/06 06:24:59;;;;;;;3.15;2.13;;;9.40;81.40;;;;;;5055545;28;20056;-73
2024/01/06 06:27:29;;;;;;;3.58;2.40;;;9.40;81.60;;;;;;5055481;28;20013;-73
2024/01/06 06:29:58;;;;;;;2.63;2.13;;;9.40;81.60;;;;;;5055688;28;20062;-74
2024/01/06 06:32:25;;;;;;;3.72;2.40;;;9.40;81.70;;;;;;5055522;28;20021;-72
2024/01/06 06:34:50;;;;;;;3.65;2.40;;;9.40;81.80;;;;;;5055348;28;20040;-73
2024/01/06 06:37:16;;;;;;;3.67;2.60;;;9.40;81.80;;;;;;5055367;28;20067;-72
2024/01/06 06:39:44;;;;;;;3.08;2.42;;;9.40;82.00;;;;;;5055767;28;20032;-72
2024/01/06 06:42:10;;;;;;;3.35;2.17;;;9.40;82.00;;;;;;5055262;28;20021;-73
2024/01/06 06:44:37;;;;;;;2.97;1.90;;;9.40;82.20;;;;;;5055210;28;20025;-73
2024/01/06 06:47:03;;;;;;;2.50;2.25;;;9.50;82.20;;;;;;5055169;28;20357;-73
2024/01/06 06:49:29;;;;;;;1.50;1.40;;;9.50;82.30;;;;;;5055712;28;20051;-72
2024/01/06 06:51:56;;;;;;;1.83;1.60;;;9.50;82.30;;;;;;5055441;28;20021;-73
2024/01/06 06:54:21;;;;;;;2.13;1.55;;;9.50;82.40;;;;;;5055426;28;20037;-74
2024/01/06 06:56:47;;;;;;;2.13;1.40;;;9.50;82.30;;;;;;5055641;28;20021;-73
2024/01/06 06:59:14;;;;;;;1.85;1.40;;;9.50;82.50;;;;;;5055081;28;20331;-73
2024/01/06 07:01:40;;;;;;;1.45;1.20;;;9.60;82.50;;;;;;5054830;28;20400;-73
2024/01/06 07:04:06;;;;;;;1.42;1.30;;;9.60;82.80;;;;;;5055056;28;20039;-73
2024/01/06 07:06:32;;;;;;;1.50;1.40;;;9.60;83.20;;;;;;5055299;28;20017;-73
2024/01/06 07:08:58;;;;;;;2.47;1.33;;;9.60;83.20;;;;;;5053138;28;20118;-73
2024/01/06 07:11:24;;;;;;;1.80;1.20;;;9.60;83.30;;;;;;5035031;28;20037;-73
2024/01/06 07:13:50;;;;;;;3.58;1.38;;;9.60;83.50;;;;;;5034878;28;20040;-73
2024/01/06 07:16:16;;;;;;;2.85;1.58;;;9.60;83.50;;;;;;5035149;28;20026;-73
2024/01/06 07:18:42;;;;;;;2.00;1.52;;;9.60;83.50;;;;;;5035467;28;20084;-73
2024/01/06 07:21:08;;;;;;;1.70;1.58;;;9.60;83.80;;;;;;5034914;28;20053;-74
2024/01/06 07:23:35;;;;;;;1.73;1.48;;;9.50;83.70;;;;;;5034946;28;20061;-72
2024/01/06 07:26:01;;;;;;;2.08;1.38;;;9.60;83.80;;;;;;5034959;28;20029;-73
2024/01/06 07:28:27;;;;;;;1.92;1.48;;;9.60;83.70;;;;;;5036792;28;20022;-73
2024/01/06 07:30:54;;;;;;;2.30;1.60;;;9.50;83.60;;;;;;5021381;28;20442;-74
2024/01/06 07:33:20;;;;;;;2.08;1.40;;;9.50;83.50;;;;;;5038596;28;20121;-74
2024/01/06 07:35:47;;;;;;;1.45;1.30;;;9.50;83.30;;;;;;5038781;28;20025;-72
2024/01/06 07:38:13;;;;;;;1.80;1.40;;;9.50;83.10;;;;;;5039294;28;20026;-73
2024/01/06 07:40:40;;;;;;;3.47;1.70;;;9.50;83.10;;;;;;5039101;28;20419;-73
2024/01/06 07:43:06;;;;;;;3.33;1.90;;;9.40;83.00;;;;;;5038465;28;20120;-73
2024/01/06 07:45:32;;;;;;;4.75;2.38;;;9.40;82.90;;;;;;5038609;28;20025;-72
2024/01/06 07:47:59;;;;;;;5.95;2.65;;;9.40;82.90;;;;;;5039095;28;20026;-72
2024/01/06 07:50:25;;;;;;;6.65;2.90;;;9.40;82.70;;;;;;5038324;28;20028;-73
2024/01/06 07:52:51;;;;;;;5.00;2.70;;;9.40;82.80;;;;;;5037980;28;20053;-74
2024/01/06 07:55:18;;;;;;;3.15;1.98;;;9.30;82.90;;;;;;5038025;28;20036;-74
2024/01/06 07:57:44;;;;;;;3.45;2.00;;;9.40;82.90;;;;;;5038306;28;20450;-72
2024/01/06 08:00:14;;;;;;;4.38;2.55;;;9.40;83.00;;;;;;5038268;28;20320;-73
2024/01/06 08:02:41;;;;;;;4.05;2.13;;;9.40;83.10;;;;;;5038590;28;20033;-74
2024/01/06 08:05:07;;;;;;;4.07;2.65;;;9.40;82.90;;;;;;5037426;28;20064;-73
2024/01/06 08:07:33;;;;;;;4.13;2.13;;;9.40;82.80;;;;;;5038140;28;20434;-73
2024/01/06 08:09:59;;;;;;;4.35;2.10;;;9.40;82.90;;;;;;5038086;28;20350;-71
2024/01/06 08:12:26;;;;;;;2.83;1.85;;;9.40;82.80;;;;;;5038034;28;20036;-74
2024/01/06 08:14:52;;;;;;;3.05;2.08;;;9.40;82.90;;;;;;5038335;28;20022;-71
2024/01/06 08:17:19;;;;;;;1.88;1.58;;;9.40;82.90;;;;;;5037166;28;20033;-73
2024/01/06 08:19:47;;;;;;;1.65;1.25;;;9.40;82.90;;;;;;5037659;28;20049;-74
2024/01/06 08:22:13;;;;;;;3.25;2.30;;;9.40;83.00;;;;;;5037868;28;20038;-73
2024/01/06 08:24:39;;;;;;;3.63;2.30;;;9.40;82.90;;;;;;5020053;28;20032;-73
2024/01/06 08:27:05;;;;;;;3.47;2.30;;;9.40;82.90;;;;;;5037789;28;20017;-72
2024/01/06 08:29:32;;;;;;;3.67;2.60;;;9.40;82.80;;;;;;5036892;28;20032;-71
2024/01/06 08:31:58;;;;;;;4.28;2.50;;;9.50;82.80;;;;;;5037381;28;20100;-72
2024/01/06 08:34:24;;;;;;;3.53;2.35;;;9.50;82.80;;;;;;5037469;28;20036;-72
2024/01/06 08:36:50;;;;;;;4.78;2.55;;;9.50;82.80;;;;;;5037269;28;20025;-72
2024/01/06 08:39:17;;;;;;;3.80;2.60;;;9.50;82.70;;;;;;5037245;28;20043;-71
2024/01/06 08:41:43;;;;;;;5.25;2.80;;;9.50;82.60;;;;;;5036837;28;20439;-72
2024/01/06 08:44:08;;;;;;;4.07;2.67;;;9.50;82.60;;;;;;5036984;28;20093;-73
2024/01/06 08:46:34;;;;;;;4.25;2.72;;;9.50;82.70;;;;;;5037007;28;20438;-72
2024/01/06 08:49:01;;;;;;;6.45;3.40;;;9.50;82.70;;;;;;5037082;28;20021;-72
2024/01/06 08:51:27;;;;;;;5.55;3.25;;;9.50;82.70;;;;;;5019606;28;20029;-72
2024/01/06 08:53:53;;;;;;;5.10;2.50;;;9.50;82.60;;;;;;5036707;28;20060;-73
2024/01/06 08:56:20;;;;;;;4.55;2.45;;;9.50;82.50;;;;;;5036811;28;20075;-72
2024/01/06 08:58:46;;;;;;;3.80;2.28;;;9.50;82.60;;;;;;5036584;28;20029;-71
2024/01/06 09:01:13;;;;;;;4.10;2.30;;;9.60;82.60;;;;;;5036763;28;20514;-71
2024/01/06 09:03:39;;;;;;;3.35;2.60;;;9.60;82.40;;;;;;5036946;28;20060;-70
2024/01/06 09:06:05;;;;;;;3.67;2.35;;;9.60;82.40;;;;;;5036550;28;20057;-71
2024/01/06 09:08:31;;;;;;;3.90;2.10;;;9.60;82.30;;;;;;5036686;28;20055;-70
2024/01/06 09:10:58;;;;;;;5.03;1.90;;;9.60;82.20;;;;;;5036695;28;20028;-71
2024/01/06 09:13:24;;;;;;;2.75;2.00;;;9.60;82.20;;;;;;5036061;28;20093;-70
2024/01/06 09:15:51;;;;;;;2.83;1.90;;;9.60;82.20;;;;;;5036492;28;20026;-71
2024/01/06 09:18:17;;;;;;;2.60;1.95;;;9.60;82.20;;;;;;5036461;28;20037;-71
2024/01/06 09:20:42;;;;;;;3.72;1.80;;;9.60;82.20;;;;;;5031090;28;20029;-70
2024/01/06 09:23:10;;;;;;;1.88;1.60;;;9.60;82.20;;;;;;5043650;28;20067;-71
2024/01/06 09:25:36;;;;;;;3.15;1.80;;;9.60;82.20;;;;;;5056168;28;20025;-71
2024/01/06 09:28:02;;;;;;;2.13;1.63;;;9.60;82.20;;;;;;5055923;28;20013;-70
2024/01/06 09:33:03;;;;;;;1.30;1.20;;;9.60;82.10;;;;;;5217380;22;20064;-71
2024/01/06 09:35:29;;;;;;;3.70;1.67;;;9.60;82.00;;;;;;5075739;28;20017;-70
2024/01/06 09:37:55;;;;;;;2.05;1.63;;;9.60;81.90;;;;;;5075915;28;20036;-70
2024/01/06 09:40:23;;;;;;;2.53;1.60;;;9.60;81.90;;;;;;5075868;28;20020;-71
2024/01/06 09:42:55;;;;;;;2.75;1.77;;;9.60;81.90;;;;;;5075274;28;20016;-70
2024/01/06 09:45:21;;;;;;;4.30;2.40;;;9.60;82.00;;;;;;5075704;28;20493;-70
2024/01/06 09:47:51;;;;;;;4.30;2.60;;;9.60;81.90;;;;;;5066555;28;20028;-70
2024/01/06 09:50:20;;;;;;;6.70;3.33;;;9.70;82.10;;;;;;5072318;28;20035;-71
2024/01/06 09:52:55;;;;;;;4.68;2.45;;;9.60;82.00;;;;;;5074497;28;20441;-71
2024/01/06 09:55:26;;;;;;;3.80;2.35;;;9.70;82.00;;;;;;5072957;28;20119;-70
2024/01/06 09:57:53;;;;;;;3.70;2.38;;;9.70;81.90;;;;;;5061481;28;20357;-69
2024/01/06 10:00:20;;;;;;;5.97;2.78;;;9.70;82.00;;;;;;5075480;28;20348;-69
2024/01/06 10:02:51;;;;;;;4.38;2.60;;;9.70;81.80;;;;;;5042837;28;20477;-72
2024/01/06 10:05:18;;;;;;;3.33;2.63;;;9.80;81.90;;;;;;5067547;28;20033;-66
2024/01/06 10:07:44;;;;;;;6.05;3.28;;;9.80;81.90;;;;;;5077398;28;20433;-69
2024/01/06 10:10:11;;;;;;;5.43;3.17;;;9.70;81.70;;;;;;5062307;28;20063;-69
2024/01/06 10:12:41;;;;;;;5.30;2.70;;;9.70;81.70;;;;;;5088255;28;20065;-69
2024/01/06 10:15:11;;;;;;;6.13;2.80;;;9.70;81.70;;;;;;5081102;28;20020;-71
2024/01/06 10:17:38;;;;;;;3.45;2.78;;;9.70;81.70;;;;;;5068073;28;20108;-71
2024/01/06 10:20:11;;;;;;;6.13;2.60;;;9.80;81.60;;;;;;5073879;28;20463;-70
2024/01/06 10:22:37;;;;;;;3.67;2.65;;;9.70;81.60;;;;;;5064711;28;20017;-71
2024/01/06 10:25:10;;;;;;;4.82;2.83;;;9.70;81.50;;;;;;5078881;28;20020;-70
2024/01/06 10:27:38;;;;;;;5.10;2.88;;;9.70;81.70;;;;;;5063718;28;20096;-72
2024/01/06 10:30:06;;;;;;;7.80;3.95;;;9.70;81.70;;;;;;5076662;28;20097;-72
2024/01/06 10:32:36;;;;;;;7.28;3.85;;;9.70;81.80;;;;;;5060177;28;20056;-71
2024/01/06 10:35:05;;;;;;;7.70;3.78;;;9.70;81.70;;;;;;5059149;28;20048;-72
2024/01/06 10:37:31;;;;;;;6.45;3.33;;;9.70;81.80;;;;;;5052480;28;20021;-71
2024/01/06 10:40:17;;;;;;;6.18;3.42;;;9.70;81.80;;;;;;5056239;28;20021;-70
2024/01/06 10:42:45;;;;;;;5.03;3.40;;;9.70;81.80;;;;;;5057174;28;20028;-71
2024/01/06 10:45:14;;;;;;;4.90;3.10;;;9.70;81.70;;;;;;5070946;28;20460;-69
2024/01/06 10:47:45;;;;;;;5.18;3.25;;;9.70;81.70;;;;;;5072958;28;20631;-69
2024/01/06 10:50:11;;;;;;;3.90;2.88;;;9.70;81.80;;;;;;5055145;28;20021;-68
2024/01/06 10:52:41;;;;;;;3.42;2.60;;;9.70;81.90;;;;;;5055112;28;20499;-69
2024/01/06 10:55:07;;;;;;;3.05;2.33;;;9.70;81.90;;;;;;5055355;28;20020;-69
2024/01/06 10:57:34;;;;;;;5.15;2.88;;;9.80;81.90;;;;;;5072809;28;20503;-69
2024/01/06 11:00:00;;;;;;;5.47;3.35;;;9.80;81.90;;;;;;5073021;28;20384;-69
2024/01/06 11:02:27;;;;;;;7.20;3.90;;;9.80;81.90;;;;;;5072552;28;20029;-69
2024/01/06 11:04:59;;;;;;;6.53;4.10;;;9.80;81.90;;;;;;5080121;28;20032;-69
2024/01/06 11:07:26;;;;;;;7.47;3.80;;;9.70;81.90;;;;;;5061611;28;20020;-69
2024/01/06 11:10:05;;;;;;;5.35;3.40;;;9.80;81.90;;;;;;5079321;28;20501;-69
2024/01/06 11:12:31;;;;;;;5.90;3.60;;;9.80;81.90;;;;;;5078315;28;20029;-70
2024/01/06 11:14:57;;;;;;;5.68;3.53;;;9.80;81.90;;;;;;5079119;28;20024;-70
2024/01/06 11:17:58;;;;;;;6.63;3.70;;;9.90;81.90;;;;;;5080055;28;20119;-69
2024/01/06 11:20:26;;;;;;;6.68;3.72;;;9.90;81.80;;;;;;5079973;28;20025;-70
2024/01/06 11:22:52;;;;;;;6.25;3.63;;;9.90;81.80;;;;;;5080604;28;20107;-70
2024/01/06 11:25:20;;;;;;;6.88;3.80;;;9.90;81.80;;;;;;5080750;28;20021;-68
2024/01/06 11:27:50;;;;;;;6.25;3.35;;;9.90;81.80;;;;;;5081073;28;20039;-70
2024/01/06 11:30:21;;;;;;;6.53;3.83;;;9.90;81.70;;;;;;5081673;28;20024;-71
2024/01/06 11:32:47;;;;;;;5.60;3.70;;;9.90;81.70;;;;;;5060288;28;20049;-71
2024/01/06 11:35:15;;;;;;;5.72;3.42;;;9.90;81.70;;;;;;5061477;28;20036;-71
2024/01/06 11:37:41;;;;;;;5.30;3.15;;;9.90;81.70;;;;;;5061748;28;20024;-69
2024/01/06 11:40:25;;;;;;;5.63;3.40;;;9.90;81.70;;;;;;5061437;28;20025;-68
2024/01/06 11:43:11;;;;;;;6.55;3.28;;;10.00;81.70;;;;;;5060393;28;20119;-70
2024/01/06 11:45:41;;;;;;;5.20;2.97;;;10.00;81.70;;;;;;5061401;28;20039;-68
2024/01/06 11:48:08;;;;;;;5.20;3.10;;;10.00;81.70;;;;;;5061308;28;20025;-68
2024/01/06 11:50:36;;;;;;;4.93;3.20;;;10.10;81.70;;;;;;5061491;28;20111;-68
2024/01/06 11:53:04;;;;;;;6.22;4.15;;;10.10;81.70;;;;;;5061281;28;20024;-70
2024/01/06 11:55:34;;;;;;;6.88;4.28;;;10.10;81.70;;;;;;5061282;28;20049;-71
2024/01/06 11:58:04;;;;;;;7.10;4.15;;;10.20;81.70;;;;;;5061242;28;20037;-71
2024/01/06 12:00:30;;;;;;;6.63;4.20;;;10.20;81.70;;;;;;5061414;28;20091;-71
2024/01/06 12:03:00;;;;;;;5.93;3.67;;;10.20;81.70;;;;;;5061276;28;20025;-68
2024/01/06 12:05:27;;;;;;;6.70;4.43;;;10.20;81.70;;;;;;5061450;28;20035;-71
2024/01/06 12:07:59;;;;;;;7.00;4.47;;;10.30;81.70;;;;;;5061184;28;20024;-71
2024/01/06 12:10:27;;;;;;;8.60;4.80;;;10.30;81.60;;;;;;5061451;28;20056;-71
2024/01/06 12:13:00;;;;;;;6.13;3.78;;;10.30;81.60;;;;;;5061329;28;20327;-71
2024/01/06 12:15:27;;;;;;;7.15;3.97;;;10.30;81.50;;;;;;5058181;28;20353;-71
2024/01/06 12:17:53;;;;;;;6.50;3.90;;;10.30;81.60;;;;;;5057902;28;20067;-71
2024/01/06 12:20:19;;;;;;;7.63;4.30;;;10.40;81.60;;;;;;5058331;28;20372;-70
2024/01/06 12:22:45;;;;;;;5.55;3.22;;;10.40;81.60;;;;;;5057734;28;20032;-70
2024/01/06 12:25:11;;;;;;;5.72;3.13;;;10.40;81.50;;;;;;5058299;28;20028;-70
2024/01/06 12:27:42;;;;;;;7.05;3.53;;;10.40;81.40;;;;;;5058041;28;20350;-71
2024/01/06 12:30:16;;;;;;;5.97;3.30;;;10.40;81.30;;;;;;5058278;28;20044;-70
2024/01/06 12:32:48;;;;;;;5.05;2.78;;;10.40;81.20;;;;;;5056609;28;20052;-71
2024/01/06 12:35:16;;;;;;;3.88;2.42;;;10.40;81.20;;;;;;5057892;28;20140;-70
2024/01/06 12:37:43;;;;;;;4.22;2.28;;;10.30;81.00;;;;;;5057699;28;20029;-68
2024/01/06 12:40:10;;;;;;;4.43;2.60;;;10.30;80.80;;;;;;5057685;28;20108;-68
2024/01/06 12:42:36;;;;;;;3.17;2.47;;;10.30;80.70;;;;;;5329101;22;20150;-72
2024/01/06 12:45:03;;;;;;;2.60;2.08;;;10.20;80.40;;;;;;5077383;28;20025;-70
2024/01/06 12:47:29;;;;;;;4.93;2.20;;;10.20;80.50;;;;;;5077717;28;20054;-71
2024/01/06 12:49:55;;;;;;;2.30;1.90;;;10.20;80.60;;;;;;5077387;28;20024;-73
2024/01/06 12:52:21;;;;;;;1.98;1.40;;;10.10;80.60;;;;;;5077370;28;20031;-70
2024/01/06 12:54:46;;;;;;;2.22;1.40;;;10.10;80.50;;;;;;5077305;28;20099;-73
2024/01/06 12:57:12;;;;;;;1.60;1.33;;;10.10;80.60;;;;;;5077204;28;20055;-72